Flight Track Log - Related Links

Times and Time Zones

All times are in EDT time to prevent confusion due to time zone crossing. See the F-HPJG flight status page for this flight to view local times or setup timezone preferences in your user account.

Time Position Orientation Groundspeed Altitude Reporting Facility
EDT Latitude Longitude Course Direction KTS MPH feet Rate Location/Type
Fri 05:51:08 PM 48.9970 2.5750 266° West 141 162 200  Level FlightAware ADS-B
Fri 05:51:15 PM 48.9962 2.5642 264° West 164 189 200 1,091 Level FlightAware ADS-B
Fri 05:51:30 PM 48.9953 2.5471 265° West 159 183 600 1,600 Climbing FlightAware ADS-B
Fri 05:51:45 PM 48.9946 2.5299 266° West 154 177 1,000 1,565 Climbing FlightAware ADS-B
Fri 05:51:53 PM 48.9942 2.5215 266° West 154 177 1,200 1,304 Climbing FlightAware ADS-B
Fri 05:52:08 PM 48.9933 2.5050 265° West 157 181 1,500 1,125 Climbing FlightAware ADS-B
Fri 05:52:25 PM 48.9922 2.4869 265° West 162 186 1,800 1,125 Climbing FlightAware ADS-B
Fri 05:52:40 PM 48.9912 2.4692 265° West 168 193 2,100 1,600 Climbing FlightAware ADS-B
Fri 05:52:55 PM 48.9903 2.4510 266° West 169 194 2,600 2,000 Climbing FlightAware ADS-B
Fri 05:53:10 PM 48.9894 2.4330 266° West 168 193 3,100 1,742 Climbing FlightAware ADS-B
Fri 05:53:26 PM 48.9884 2.4148 265° West 175 201 3,500 1,125 Climbing FlightAware ADS-B
Fri 05:53:42 PM 48.9873 2.3944 265° West 196 226 3,700 692 Climbing FlightAware ADS-B
Fri 05:53:52 PM 48.9866 2.3797 266° West 212 244 3,800 720 Climbing FlightAware ADS-B
Fri 05:54:07 PM 48.9854 2.3560 266° West 234 269 4,000 1,000 Climbing FlightAware ADS-B
Fri 05:54:22 PM 48.9841 2.3296 266° West 255 293 4,300 1,548 Climbing FlightAware ADS-B
Fri 05:54:38 PM 48.9825 2.3016 265° West 263 303 4,800 2,323 Climbing FlightAware ADS-B
Fri 05:54:53 PM 48.9808 2.2731 265° West 268 308 5,500 2,880 Climbing FlightAware ADS-B
Fri 05:55:03 PM 48.9796 2.2537 265° West 270 311 6,000 2,769 Climbing FlightAware ADS-B
Fri 05:55:19 PM 48.9775 2.2246 264° West 274 315 6,700 2,571 Climbing FlightAware ADS-B
Fri 05:55:31 PM 48.9757 2.2009 263° West 277 319 7,200 2,625 Climbing FlightAware ADS-B
Fri 05:55:35 PM 48.9749 2.1932 261° West 278 320 7,400 2,667 Climbing FlightAware ADS-B
Fri 05:55:40 PM 48.9735 2.1838 257° West 280 322 7,600 2,400 Climbing FlightAware ADS-B
Fri 05:55:45 PM 48.9714 2.1747 251° West 282 325 7,800 2,000 Climbing FlightAware ADS-B
Fri 05:55:49 PM 48.9693 2.1678 245° Southwest 284 327 7,900 2,571 Climbing FlightAware ADS-B
Fri 05:55:52 PM 48.9673 2.1625 240° Southwest 286 329 8,100 2,250 Climbing FlightAware ADS-B
Fri 05:55:57 PM 48.9636 2.1543 236° Southwest 288 331 8,200 2,143 Climbing FlightAware ADS-B
Fri 05:56:06 PM 48.9550 2.1418 224° Southwest 290 334 8,600 3,000 Climbing FlightAware ADS-B
Fri 05:56:09 PM 48.9508 2.1375 214° Southwest 291 335 8,800 3,429 Climbing FlightAware ADS-B
Fri 05:56:13 PM 48.9466 2.1341 208° Southwest 291 335 9,000 2,571 Climbing FlightAware ADS-B
Fri 05:56:16 PM 48.9426 2.1317 201° Southwest 292 336 9,100 2,000 Climbing FlightAware ADS-B
Fri 05:56:19 PM 48.9386 2.1299 197° South 293 337 9,200 1,714 Climbing FlightAware ADS-B
Fri 05:56:23 PM 48.9342 2.1285 192° South 296 341 9,300 1,714 Climbing FlightAware ADS-B
Fri 05:56:26 PM 48.9300 2.1279 186° South 298 343 9,400 1,714 Climbing FlightAware ADS-B
Fri 05:56:30 PM 48.9236 2.1280 180° South 299 344 9,500 2,229 Climbing FlightAware ADS-B
Fri 05:57:01 PM 48.8815 2.1334 175° South 307 353 10,700 1,869 Climbing FlightAware ADS-B
Fri 05:57:31 PM 48.8366 2.1400 175° South 337 388 11,400 1,355 Climbing FlightAware ADS-B
Fri 05:58:03 PM 48.7843 2.1471 175° South 368 423 12,100 1,143 Climbing FlightAware ADS-B
Fri 05:58:34 PM 48.7308 2.1536 175° South 396 456 12,600 1,548 Climbing FlightAware ADS-B
Fri 05:59:05 PM 48.6714 2.1614 175° South 409 471 13,700 2,226 Climbing FlightAware ADS-B
Fri 05:59:36 PM 48.6128 2.1687 175° South 416 479 14,900 2,495 Climbing FlightAware ADS-B
Fri 06:00:46 PM 48.4797 2.1985 172° South 417 480 17,900 2,340 Climbing FlightAware ADS-B
Fri 06:01:16 PM 48.4203 2.2138 170° South 430 495 18,800 1,869 Climbing FlightAware ADS-B
Fri 06:01:47 PM 48.3605 2.2294 170° South 436 502 19,800 2,032 Climbing FlightAware ADS-B
Fri 06:02:18 PM 48.2990 2.2455 170° South 441 507 20,900 1,869 Climbing FlightAware ADS-B
Fri 06:02:48 PM 48.2420 2.2600 170° South 442 509 21,700 1,579 Climbing FlightAware ADS-B
Fri 06:02:56 PM 48.2218 2.2657 169° South 446 513 21,900 1,467 Climbing FlightAware ADS-B
Fri 06:03:33 PM 48.1520 2.2840 170° South 458 527 22,800 1,636 Climbing FlightAware ADS-B
Fri 06:04:13 PM 48.0680 2.3050 171° South 463 533 24,000 1,624 Climbing FlightAware ADS-B
Fri 06:04:58 PM 47.9720 2.3300 170° South 472 543 25,100 1,482 Climbing FlightAware ADS-B
Fri 06:05:38 PM 47.8840 2.3540 170° South 477 549 26,100 1,425 Climbing FlightAware ADS-B
Fri 06:06:18 PM 47.7960 2.3770 170° South 484 557 27,000 1,271 Climbing FlightAware ADS-B
Fri 06:07:03 PM 47.6980 2.4020 170° South 491 565 27,900 1,200 Climbing FlightAware ADS-B
Fri 06:07:43 PM 47.6080 2.4260 170° South 496 571 28,700 1,694 Climbing FlightAware ADS-B
Fri 06:08:28 PM 47.5040 2.4530 170° South 486 559 30,300 1,976 Climbing FlightAware ADS-B
Fri 06:09:08 PM 47.4160 2.4750 170° South 481 554 31,500 1,575 Climbing FlightAware ADS-B
Fri 06:09:48 PM 47.3310 2.4970 170° South 477 549 32,400 918 Climbing FlightAware ADS-B
Fri 06:10:33 PM 47.2340 2.5220 170° South 489 563 32,800 847 Climbing FlightAware ADS-B
Fri 06:11:13 PM 47.1460 2.5450 170° South 487 560 33,600 1,129 Climbing FlightAware ADS-B
Fri 06:11:58 PM 47.0430 2.5710 170° South 489 563 34,400 918 Climbing FlightAware ADS-B
Fri 06:12:38 PM 46.9540 2.5930 170° South 490 564 34,900 900 Climbing FlightAware ADS-B
Fri 06:13:18 PM 46.8650 2.6160 170° South 485 558 35,600 900 Climbing FlightAware ADS-B
Fri 06:13:58 PM 46.7810 2.6370 170° South 487 560 36,100 847 Climbing FlightAware ADS-B
Fri 06:14:43 PM 46.6740 2.6640 170° South 484 557 36,800 600 Climbing FlightAware ADS-B
Fri 06:15:28 PM 46.5760 2.6880 170° South 490 564 37,000 141 Climbing FlightAware ADS-B
Fri 06:16:08 PM 46.4870 2.7110 170° South 494 568 37,000  Level FlightAware ADS-B
Fri 06:16:48 PM 46.3970 2.7330 170° South 493 567 37,000  Level FlightAware ADS-B
Fri 06:17:33 PM 46.2930 2.7590 170° South 492 566 37,000  Level FlightAware ADS-B
Fri 06:18:13 PM 46.2030 2.7810 170° South 493 567 37,000  Level FlightAware ADS-B
Fri 06:18:58 PM 46.1060 2.8050 170° South 493 567 37,000  Level FlightAware ADS-B
Fri 06:19:38 PM 46.0160 2.8270 170° South 494 568 37,000  Level FlightAware ADS-B
Fri 06:20:18 PM 45.9270 2.8480 171° South 492 566 37,000  Level FlightAware ADS-B
Fri 06:21:03 PM 45.8230 2.8740 170° South 493 567 37,000  Level FlightAware ADS-B
Fri 06:21:43 PM 45.7340 2.8950 171° South 492 566 37,000  Level FlightAware ADS-B
Fri 06:22:28 PM 45.6300 2.9200 170° South 492 566 37,000  Level FlightAware ADS-B
Fri 06:23:08 PM 45.5420 2.9420 170° South 492 566 37,000  Level FlightAware ADS-B
Fri 06:23:48 PM 45.4520 2.9630 171° South 492 566 37,000  Level FlightAware ADS-B
Fri 06:24:28 PM 45.3630 2.9840 171° South 492 566 37,000  Level FlightAware ADS-B
Fri 06:25:13 PM 45.2590 3.0090 170° South 491 565 37,000  Level FlightAware ADS-B
Fri 06:25:53 PM 45.1720 3.0300 170° South 491 565 37,000  Level FlightAware ADS-B
Fri 06:26:38 PM 45.0690 3.0540 171° South 488 562 37,000  Level FlightAware ADS-B
Fri 06:27:18 PM 44.9850 3.0740 170° South 489 563 37,000  Level FlightAware ADS-B
Fri 06:28:03 PM 44.8810 3.0980 171° South 489 563 37,000  Level FlightAware ADS-B
Fri 06:28:43 PM 44.7930 3.1300 166° South 493 567 37,000  Level FlightAware ADS-B
Fri 06:29:23 PM 44.7120 3.1890 153° Southeast 493 567 37,000  Level FlightAware ADS-B
Fri 06:30:08 PM 44.6230 3.2530 153° Southeast 492 566 37,000  Level FlightAware ADS-B
Fri 06:30:48 PM 44.5440 3.3080 154° Southeast 493 567 37,000  Level FlightAware ADS-B
Fri 06:31:33 PM 44.4490 3.3750 153° Southeast 491 565 37,000  Level FlightAware ADS-B
Fri 06:32:13 PM 44.3670 3.4320 154° Southeast 491 565 37,000  Level FlightAware ADS-B
Fri 06:32:53 PM 44.2860 3.4880 154° Southeast 491 565 37,000  Level FlightAware ADS-B
Fri 06:33:38 PM 44.1960 3.5460 155° Southeast 491 565 37,000  Level FlightAware ADS-B
Fri 06:34:18 PM 44.1120 3.5900 159° South 491 565 37,000  Level FlightAware ADS-B
Fri 06:35:03 PM 44.0130 3.6420 159° South 493 567 37,000  Level FlightAware ADS-B
Fri 06:35:43 PM 43.9290 3.6870 159° South 490 564 37,000  Level FlightAware ADS-B
Fri 06:36:23 PM 43.8450 3.7320 159° South 487 560 37,000  Level FlightAware ADS-B
Fri 06:37:08 PM 43.7470 3.7830 159° South 486 559 37,000  Level FlightAware ADS-B
Fri 06:37:48 PM 43.6630 3.8270 159° South 483 556 37,000  Level FlightAware ADS-B
Fri 06:38:33 PM 43.5720 3.8740 159° South 481 554 37,000  Level FlightAware ADS-B
Fri 06:39:13 PM 43.4900 3.9170 159° South 477 549 37,000  Level FlightAware ADS-B
Fri 06:39:53 PM 43.4070 3.9600 159° South 476 548 37,000  Level FlightAware ADS-B
Fri 06:40:38 PM 43.3130 4.0090 159° South 477 549 37,000  Level FlightAware ADS-B
Fri 06:41:18 PM 43.2310 4.0510 160° South 477 549 37,000  Level FlightAware ADS-B
Fri 06:42:03 PM 43.1370 4.1000 159° South 477 549 37,000  Level FlightAware ADS-B
Fri 06:42:43 PM 43.0540 4.1430 159° South 478 550 37,000  Level FlightAware ADS-B
Fri 06:43:23 PM 42.9700 4.1860 159° South 478 550 37,000  Level FlightAware ADS-B
Fri 06:44:08 PM 42.8790 4.2320 160° South 476 548 37,000  Level FlightAware ADS-B
Fri 06:44:48 PM 42.7960 4.2740 160° South 476 548 37,000  Level FlightAware ADS-B
Fri 06:45:33 PM 42.7050 4.3200 160° South 478 550 37,000  Level FlightAware ADS-B
Fri 06:46:13 PM 42.6210 4.3630 159° South 479 551 37,000  Level FlightAware ADS-B
Fri 06:46:53 PM 42.5380 4.4050 160° South 480 552 37,000  Level FlightAware ADS-B
Fri 06:47:38 PM 42.4430 4.4530 160° South 481 554 37,000  Level FlightAware ADS-B
Fri 06:48:18 PM 42.3600 4.4940 160° South 481 554 37,000  Level FlightAware ADS-B
Fri 06:49:03 PM 42.2970 4.5260 159° South 481 554 37,000  Level FlightAware ADS-B
Fri 06:49:43 PM 42.1930 4.5780 160° South 478 550 37,000  Level FlightAware ADS-B
Fri 06:50:38 PM 42.0850 4.6310 160° South 477 549 37,000  Level FlightAware ADS-B
Fri 06:51:18 PM 42.0080 4.6700 159° South 480 552 37,000  Level FlightAware ADS-B
Fri 06:52:18 PM 41.8590 4.7430 160° South 485 558 37,000  Level FlightAware ADS-B
Fri 06:52:58 PM 41.7740 4.7850 160° South 485 558 37,000  Level FlightAware ADS-B
Fri 06:53:38 PM 41.6910 4.8260 160° South 482 555 37,000  Level FlightAware ADS-B
Fri 06:54:23 PM 41.6000 4.8700 160° South 482 555 37,000  Level FlightAware ADS-B
Fri 06:55:03 PM 41.5150 4.9120 160° South 480 552 37,000  Level FlightAware ADS-B
Fri 06:55:48 PM 41.4200 4.9580 160° South 477 549 37,000  Level FlightAware ADS-B
Fri 06:56:43 PM 41.3070 5.0130 160° South 475 547 37,000  Level FlightAware ADS-B
Fri 06:57:23 PM 41.2250 5.0520 160° South 472 543 37,000  Level FlightAware ADS-B
Fri 06:58:08 PM 41.1420 5.0940 159° South 472 543 37,000  Level FlightAware ADS-B
Fri 06:58:43 PM 41.0650 5.1290 161° South 474 545 37,000  Level FlightAware ADS-B
Fri 06:59:33 PM 40.9580 5.1800 160° South 476 548 37,000  Level FlightAware ADS-B
Fri 07:00:13 PM 40.8730 5.2210 160° South 476 548 37,000  Level FlightAware ADS-B
Fri 07:00:53 PM 40.7930 5.2590 160° South 474 545 37,000  Level FlightAware ADS-B
Fri 07:01:48 PM 40.6820 5.3120 160° South 474 545 37,000  Level FlightAware ADS-B
Fri 07:02:28 PM 40.6120 5.3460 160° South 474 545 37,000  Level FlightAware ADS-B
Fri 07:03:08 PM 40.5420 5.3790 160° South 474 545 37,000  Level FlightAware ADS-B
Fri 07:03:58 PM 40.4540 5.4210 160° South 474 545 37,000  Level FlightAware ADS-B
Fri 07:04:38 PM 40.3840 5.4550 160° South 474 545 37,000  Level FlightAware ADS-B
Fri 07:05:18 PM 40.3140 5.4880 160° South 474 545 37,000  Level FlightAware ADS-B
Fri 07:05:58 PM 40.1630 5.5560 161° South 480 552 37,000  Level FlightAware ADS-B
Fri 07:07:08 PM 40.0180 5.6230 161° South 474 545 37,000  Level FlightAware ADS-B
Fri 07:07:53 PM 39.9180 5.6690 161° South 463 533 37,000  Level FlightAware ADS-B
Fri 07:09:33 PM 39.7220 5.7600 160° South 463 533 37,000  Level FlightAware ADS-B
Fri 07:10:13 PM 39.6380 5.7980 161° South 466 536 37,000  Level FlightAware ADS-B
Fri 07:10:58 PM 39.5450 5.8410 160° South 462 532 37,000  Level FlightAware ADS-B
Fri 07:11:38 PM 39.4650 5.8770 161° South 461 531 37,000  Level FlightAware ADS-B
Fri 07:14:00 PM 39.1840 6.0197 159° South  Level Estimated
Fri 07:14:23 PM 39.1190 6.0030 159° South 462 532 37,000  Level FlightAware ADS-B
Fri 07:15:08 PM 39.0210 6.0270 169° South 471 542 37,000  Level FlightAware ADS-B
Fri 07:15:48 PM 38.9360 6.0470 170° South 472 543 37,000  Level FlightAware ADS-B
Fri 07:16:33 PM 38.8390 6.0710 169° South 462 532 37,000  Level FlightAware ADS-B
Fri 07:17:13 PM 38.7680 6.0880 169° South 462 532 37,000  Level FlightAware ADS-B
Fri 07:17:53 PM 38.6670 6.1110 170° South 473 544 37,000  Level FlightAware ADS-B
Fri 07:18:33 PM 38.5880 6.1310 169° South 472 543 37,000  Level FlightAware ADS-B
Fri 07:19:13 PM 38.5160 6.1490 169° South 472 543 37,000  Level FlightAware ADS-B
Fri 07:20:03 PM 38.4240 6.1710 169° South 472 543 37,000  Level FlightAware ADS-B
Fri 07:20:43 PM 38.3520 6.1900 168° South 472 543 37,000  Level FlightAware ADS-B
Fri 07:22:03 PM 38.1360 6.2370 170° South 473 544 37,000  Level FlightAware ADS-B
Fri 07:22:43 PM 38.0630 6.2550 169° South 473 544 37,000  Level FlightAware ADS-B
Fri 07:23:33 PM 37.9720 6.2780 169° South 473 544 37,000  Level FlightAware ADS-B
Fri 07:24:13 PM 37.8990 6.2960 169° South 473 544 37,000  Level FlightAware ADS-B
Fri 07:24:53 PM 37.8260 6.3140 169° South 473 544 37,000  Level FlightAware ADS-B
Fri 07:25:33 PM 37.7530 6.3320 169° South 473 544 37,000  Level FlightAware ADS-B
Fri 07:26:13 PM 37.6800 6.3500 169° South 473 544 37,000  Level FlightAware ADS-B
Fri 07:27:03 PM 37.5890 6.3720 169° South 473 544 37,000  Level FlightAware ADS-B
Fri 07:27:43 PM 37.5160 6.3900 169° South 473 544 37,000  Level FlightAware ADS-B
Fri 07:28:23 PM 37.4430 6.4080 169° South 473 544 37,000  Level FlightAware ADS-B
Fri 07:29:03 PM 37.3700 6.4260 169° South 473 544 37,000  Level FlightAware ADS-B
Fri 07:29:43 PM 37.2960 6.4440 169° South 473 544 37,000  Level FlightAware ADS-B
Fri 07:30:13 PM 37.2420 6.4570 169° South 473 544 37,000  Level FlightAware ADS-B
Fri 07:30:53 PM 37.1690 6.4750 169° South 473 544 37,000 Level FlightAware ADS-B
Fri 07:33:00 PM 36.9174 6.5976 159° South  Level Estimated
Fri 07:34:00 PM 36.7984 6.6552 159° South  Level Estimated
Fri 07:35:00 PM 36.6795 6.7127 159° South  Level Estimated
Fri 07:36:00 PM 36.5605 6.7699 159° South  Level Estimated
Fri 07:37:00 PM 36.4414 6.8270 159° South  Level Estimated
Fri 07:38:00 PM 36.3224 6.8840 159° South  Level Estimated
Fri 07:39:00 PM 36.2029 6.9409 159° South  Level Estimated
Fri 07:40:00 PM 36.0835 6.9977 159° South  Level Estimated
Fri 07:41:00 PM 35.9640 7.0542 159° South  Level Estimated
Fri 07:42:00 PM 35.8444 7.1107 159° South  Level Estimated
Fri 07:43:00 PM 35.7248 7.1669 159° South  Level Estimated
Fri 07:44:00 PM 35.6053 7.2230 159° South  Level Estimated
Fri 07:45:00 PM 35.4856 7.2789 159° South  Level Estimated
Fri 07:46:00 PM 35.3660 7.3347 159° South  Level Estimated
Fri 07:47:00 PM 35.2463 7.3902 159° South  Level Estimated
Fri 07:48:00 PM 35.1266 7.4457 159° South  Level Estimated
Fri 07:49:00 PM 35.0069 7.5009 159° South  Level Estimated
Fri 07:50:00 PM 34.8872 7.5560 159° South  Level Estimated
Fri 07:51:00 PM 34.7674 7.6109 159° South  Level Estimated
Fri 07:52:00 PM 34.6476 7.6657 159° South  Level Estimated
Fri 07:53:00 PM 34.5278 7.7203 159° South  Level Estimated
Fri 07:54:00 PM 34.4080 7.7748 159° South  Level Estimated
Fri 07:55:00 PM 34.2881 7.8291 159° South  Level Estimated
Fri 07:56:00 PM 34.1682 7.8832 160° South  Level Estimated
Fri 07:57:00 PM 34.0483 7.9372 160° South  Level Estimated
Fri 07:58:00 PM 33.9283 7.9911 160° South  Level Estimated
Fri 07:59:00 PM 33.8084 8.0448 160° South  Level Estimated
Fri 08:00:00 PM 33.6884 8.0983 160° South  Level Estimated
Fri 08:01:00 PM 33.5684 8.1517 160° South  Level Estimated
Fri 08:02:00 PM 33.4484 8.2049 160° South  Level Estimated
Fri 08:03:00 PM 33.3283 8.2580 160° South  Level Estimated
Fri 08:04:00 PM 33.2082 8.3110 160° South  Level Estimated
Fri 08:05:00 PM 33.0881 8.3638 160° South  Level Estimated
Fri 08:06:00 PM 32.9680 8.4164 160° South  Level Estimated
Fri 08:07:00 PM 32.8479 8.4690 160° South  Level Estimated
Fri 08:08:00 PM 32.7277 8.5213 160° South  Level Estimated
Fri 08:09:00 PM 32.6075 8.5736 160° South  Level Estimated
Fri 08:10:00 PM 32.4873 8.6257 160° South  Level Estimated
Fri 08:11:00 PM 32.3671 8.6776 160° South  Level Estimated
Fri 08:12:00 PM 32.2468 8.7294 160° South  Level Estimated
Fri 08:13:00 PM 32.1266 8.7811 160° South  Level Estimated
Fri 08:14:00 PM 32.0063 8.8327 160° South  Level Estimated
Fri 08:15:00 PM 31.8860 8.8841 160° South  Level Estimated
Fri 08:16:00 PM 31.7656 8.9354 160° South  Level Estimated
Fri 08:17:00 PM 31.6453 8.9865 160° South  Level Estimated
Fri 08:18:00 PM 31.5249 9.0375 160° South  Level Estimated
Fri 08:19:00 PM 31.4045 9.0884 160° South  Level Estimated
Fri 08:20:00 PM 31.2841 9.1391 160° South  Level Estimated
Fri 08:21:00 PM 31.1637 9.1897 160° South  Level Estimated
Fri 08:22:00 PM 31.0432 9.2402 160° South  Level Estimated
Fri 08:23:00 PM 30.9228 9.2906 160° South  Level Estimated
Fri 08:24:00 PM 30.8023 9.3408 160° South  Level Estimated
Fri 08:25:00 PM 30.6818 9.3910 160° South  Level Estimated
Fri 08:26:00 PM 30.5613 9.4409 160° South  Level Estimated
Fri 08:27:00 PM 30.4407 9.4908 160° South  Level Estimated
Fri 08:28:00 PM 30.3201 9.5405 160° South  Level Estimated
Fri 08:29:00 PM 30.1995 9.5901 160° South  Level Estimated
Fri 08:30:00 PM 30.0789 9.6396 160° South  Level Estimated
Fri 08:31:00 PM 29.9583 9.6890 160° South  Level Estimated
Fri 08:32:00 PM 29.8377 9.7383 160° South  Level Estimated
Fri 08:33:00 PM 29.7170 9.7874 161° South  Level Estimated
Fri 08:34:00 PM 29.5963 9.8364 161° South  Level Estimated
Fri 08:35:00 PM 29.4756 9.8853 161° South  Level Estimated
Fri 08:36:00 PM 29.3549 9.9341 161° South  Level Estimated
Fri 08:37:00 PM 29.2342 9.9828 161° South  Level Estimated
Fri 08:38:00 PM 29.1134 10.0313 161° South  Level Estimated
Fri 08:39:00 PM 28.9927 10.0798 161° South  Level Estimated
Fri 08:40:00 PM 28.8719 10.1281 161° South  Level Estimated
Fri 08:41:00 PM 28.7511 10.1763 161° South  Level Estimated
Fri 08:42:00 PM 28.6303 10.2244 161° South  Level Estimated
Fri 08:43:00 PM 28.5094 10.2724 161° South  Level Estimated
Fri 08:44:00 PM 28.3886 10.3203 161° South  Level Estimated
Fri 08:45:00 PM 28.2677 10.3680 161° South  Level Estimated
Fri 08:46:00 PM 28.1468 10.4157 161° South  Level Estimated
Fri 08:47:00 PM 28.0259 10.4633 161° South  Level Estimated
Fri 08:48:00 PM 27.9050 10.5107 161° South  Level Estimated
Fri 08:49:00 PM 27.7840 10.5581 161° South  Level Estimated
Fri 08:50:00 PM 27.6631 10.6053 161° South  Level Estimated
Fri 08:51:00 PM 27.5421 10.6524 161° South  Level Estimated
Fri 08:52:00 PM 27.4211 10.6995 161° South  Level Estimated
Fri 08:53:00 PM 27.3001 10.7464 161° South  Level Estimated
Fri 08:54:00 PM 27.1791 10.7932 161° South  Level Estimated
Fri 08:55:00 PM 27.0581 10.8399 161° South  Level Estimated
Fri 08:56:00 PM 26.9370 10.8866 161° South  Level Estimated
Fri 08:57:00 PM 26.8160 10.9331 161° South  Level Estimated
Fri 08:58:00 PM 26.6949 10.9795 161° South  Level Estimated
Fri 08:59:00 PM 26.5738 11.0258 161° South  Level Estimated
Fri 09:00:00 PM 26.4527 11.0721 161° South  Level Estimated
Fri 09:01:00 PM 26.3316 11.1182 161° South  Level Estimated
Fri 09:02:00 PM 26.2104 11.1642 161° South  Level Estimated
Fri 09:03:00 PM 26.0893 11.2102 161° South  Level Estimated
Fri 09:04:00 PM 25.9681 11.2560 161° South  Level Estimated
Fri 09:05:00 PM 25.8470 11.3018 161° South  Level Estimated
Fri 09:06:00 PM 25.7258 11.3474 161° South  Level Estimated
Fri 09:07:00 PM 25.6045 11.3930 161° South  Level Estimated
Fri 09:08:00 PM 25.4833 11.4384 161° South  Level Estimated
Fri 09:09:00 PM 25.3621 11.4838 161° South  Level Estimated
Fri 09:10:00 PM 25.2408 11.5291 161° South  Level Estimated
Fri 09:11:00 PM 25.1196 11.5743 161° South  Level Estimated
Fri 09:12:00 PM 24.9983 11.6194 161° South  Level Estimated
Fri 09:13:00 PM 24.8770 11.6644 161° South  Level Estimated
Fri 09:14:00 PM 24.7557 11.7094 161° South  Level Estimated
Fri 09:15:00 PM 24.6344 11.7542 161° South  Level Estimated
Fri 09:16:00 PM 24.5131 11.7990 161° South  Level Estimated
Fri 09:17:00 PM 24.3917 11.8436 161° South  Level Estimated
Fri 09:18:00 PM 24.2704 11.8882 161° South  Level Estimated
Fri 09:19:00 PM 24.1490 11.9327 162° South  Level Estimated
Fri 09:20:00 PM 24.0276 11.9771 162° South  Level Estimated
Fri 09:21:00 PM 23.9062 12.0215 162° South  Level Estimated
Fri 09:22:00 PM 23.7848 12.0657 162° South  Level Estimated
Fri 09:23:00 PM 23.6634 12.1099 162° South  Level Estimated
Fri 09:24:00 PM 23.5420 12.1540 162° South  Level Estimated
Fri 09:25:00 PM 23.4205 12.1980 162° South  Level Estimated
Fri 09:26:00 PM 23.2990 12.2419 162° South  Level Estimated
Fri 09:27:00 PM 23.1776 12.2857 162° South  Level Estimated
Fri 09:28:00 PM 23.0561 12.3295 162° South  Level Estimated
Fri 09:29:00 PM 22.9346 12.3732 162° South  Level Estimated
Fri 09:30:00 PM 22.8131 12.4168 162° South  Level Estimated
Fri 09:31:00 PM 22.6916 12.4603 162° South  Level Estimated
Fri 09:32:00 PM 22.5700 12.5037 162° South  Level Estimated
Fri 09:33:00 PM 22.4485 12.5471 162° South  Level Estimated
Fri 09:34:00 PM 22.3270 12.5904 162° South  Level Estimated
Fri 09:35:00 PM 22.2054 12.6336 162° South  Level Estimated
Fri 09:36:00 PM 22.0838 12.6768 162° South  Level Estimated
Fri 09:37:00 PM 21.9622 12.7198 162° South  Level Estimated
Fri 09:38:00 PM 21.8406 12.7628 162° South  Level Estimated
Fri 09:39:00 PM 21.7190 12.8058 162° South  Level Estimated
Fri 09:40:00 PM 21.5974 12.8486 162° South  Level Estimated
Fri 09:41:00 PM 21.4758 12.8914 162° South  Level Estimated
Fri 09:42:00 PM 21.3541 12.9341 162° South  Level Estimated
Fri 09:43:00 PM 21.2325 12.9768 162° South  Level Estimated
Fri 09:44:00 PM 21.1108 13.0193 162° South  Level Estimated
Fri 09:45:00 PM 20.9891 13.0618 162° South  Level Estimated
Fri 09:46:00 PM 20.8675 13.1043 162° South  Level Estimated
Fri 09:47:00 PM 20.7458 13.1466 162° South  Level Estimated
Fri 09:48:00 PM 20.6240 13.1889 162° South  Level Estimated
Fri 09:49:00 PM 20.5023 13.2311 162° South  Level Estimated
Fri 09:50:00 PM 20.3806 13.2733 162° South  Level Estimated
Fri 09:51:00 PM 20.2589 13.3154 162° South  Level Estimated
Fri 09:52:00 PM 20.1371 13.3574 162° South  Level Estimated
Fri 09:53:00 PM 20.0153 13.3994 162° South  Level Estimated
Fri 09:54:00 PM 19.8936 13.4413 162° South  Level Estimated
Fri 09:55:00 PM 19.7718 13.4831 162° South  Level Estimated
Fri 09:56:00 PM 19.6500 13.5249 162° South  Level Estimated
Fri 09:57:00 PM 19.5282 13.5666 162° South  Level Estimated
Fri 09:58:00 PM 19.4064 13.6082 162° South  Level Estimated
Fri 09:59:00 PM 19.2846 13.6498 162° South  Level Estimated
Fri 10:00:00 PM 19.1628 13.6913 162° South  Level Estimated
Fri 10:01:00 PM 19.0409 13.7328 162° South  Level Estimated
Fri 10:02:00 PM 18.9191 13.7742 162° South  Level Estimated
Fri 10:03:00 PM 18.7972 13.8155 162° South  Level Estimated
Fri 10:04:00 PM 18.6754 13.8568 162° South  Level Estimated
Fri 10:05:00 PM 18.5535 13.8980 162° South  Level Estimated
Fri 10:06:00 PM 18.4316 13.9391 162° South  Level Estimated
Fri 10:07:00 PM 18.3097 13.9803 162° South  Level Estimated
Fri 10:08:00 PM 18.1878 14.0213 162° South  Level Estimated
Fri 10:09:00 PM 18.0659 14.0623 162° South  Level Estimated
Fri 10:10:00 PM 17.9440 14.1032 162° South  Level Estimated
Fri 10:11:00 PM 17.8221 14.1441 162° South  Level Estimated
Fri 10:12:00 PM 17.7002 14.1849 162° South  Level Estimated
Fri 10:13:00 PM 17.5782 14.2256 162° South  Level Estimated
Fri 10:14:00 PM 17.4563 14.2663 162° South  Level Estimated
Fri 10:15:00 PM 17.3343 14.3070 162° South  Level Estimated
Fri 10:16:00 PM 17.2124 14.3476 162° South  Level Estimated
Fri 10:17:00 PM 17.0904 14.3881 162° South  Level Estimated
Fri 10:18:00 PM 16.9684 14.4286 162° South  Level Estimated
Fri 10:19:00 PM 16.8464 14.4691 162° South  Level Estimated
Fri 10:20:00 PM 16.7244 14.5094 162° South  Level Estimated
Fri 10:21:00 PM 16.6024 14.5498 162° South  Level Estimated
Fri 10:22:00 PM 16.4804 14.5900 162° South  Level Estimated
Fri 10:23:00 PM 16.3584 14.6303 162° South  Level Estimated
Fri 10:24:00 PM 16.2364 14.6705 162° South  Level Estimated
Fri 10:25:00 PM 16.1143 14.7106 162° South  Level Estimated
Fri 10:26:00 PM 15.9923 14.7507 162° South  Level Estimated
Fri 10:27:00 PM 15.8702 14.7907 162° South  Level Estimated
Fri 10:28:00 PM 15.7482 14.8307 163° South  Level Estimated
Fri 10:29:00 PM 15.6261 14.8706 163° South  Level Estimated
Fri 10:30:00 PM 15.5041 14.9105 163° South  Level Estimated
Fri 10:31:00 PM 15.3820 14.9503 163° South  Level Estimated
Fri 10:32:00 PM 15.2599 14.9901 163° South  Level Estimated
Fri 10:33:00 PM 15.1378 15.0299 163° South  Level Estimated
Fri 10:34:00 PM 15.0157 15.0696 163° South  Level Estimated
Fri 10:35:00 PM 14.8936 15.1093 163° South  Level Estimated
Fri 10:36:00 PM 14.7715 15.1489 163° South  Level Estimated
Fri 10:37:00 PM 14.6494 15.1884 163° South  Level Estimated
Fri 10:38:00 PM 14.5272 15.2280 163° South  Level Estimated
Fri 10:39:00 PM 14.4051 15.2674 163° South  Level Estimated
Fri 10:40:00 PM 14.2830 15.3069 163° South  Level Estimated
Fri 10:41:00 PM 14.1608 15.3463 163° South  Level Estimated
Fri 10:42:00 PM 14.0386 15.3856 163° South  Level Estimated
Fri 10:43:00 PM 13.9165 15.4249 163° South  Level Estimated
Fri 10:44:00 PM 13.7943 15.4642 163° South  Level Estimated
Fri 10:45:00 PM 13.6721 15.5034 163° South  Level Estimated
Fri 10:46:00 PM 13.5500 15.5426 163° South  Level Estimated
Fri 10:47:00 PM 13.4278 15.5818 163° South  Level Estimated
Fri 10:48:00 PM 13.3056 15.6209 163° South  Level Estimated
Fri 10:49:00 PM 13.1834 15.6599 163° South  Level Estimated
Fri 10:50:00 PM 13.0612 15.6990 163° South  Level Estimated
Fri 10:51:00 PM 12.9390 15.7380 163° South  Level Estimated
Fri 10:52:00 PM 12.8168 15.7769 163° South  Level Estimated
Fri 10:53:00 PM 12.6946 15.8158 163° South  Level Estimated
Fri 10:54:00 PM 12.5723 15.8547 163° South  Level Estimated
Fri 10:55:00 PM 12.4501 15.8935 163° South  Level Estimated
Fri 10:56:00 PM 12.3279 15.9323 163° South  Level Estimated
Fri 10:57:00 PM 12.2056 15.9711 163° South  Level Estimated
Fri 10:58:00 PM 12.0834 16.0098 163° South  Level Estimated
Fri 10:59:00 PM 11.9611 16.0485 163° South  Level Estimated
Fri 11:00:00 PM 11.8389 16.0872 163° South  Level Estimated
Fri 11:01:00 PM 11.7166 16.1258 163° South  Level Estimated
Fri 11:02:00 PM 11.5943 16.1644 163° South  Level Estimated
Fri 11:03:00 PM 11.4721 16.2030 163° South  Level Estimated
Fri 11:04:00 PM 11.3498 16.2415 163° South  Level Estimated
Fri 11:05:00 PM 11.2275 16.2800 163° South  Level Estimated
Fri 11:06:00 PM 11.1052 16.3185 163° South  Level Estimated
Fri 11:07:00 PM 10.9829 16.3569 163° South  Level Estimated
Fri 11:08:00 PM 10.8606 16.3953 163° South  Level Estimated
Fri 11:09:00 PM 10.7383 16.4336 163° South  Level Estimated
Fri 11:10:00 PM 10.6160 16.4720 163° South  Level Estimated
Fri 11:11:00 PM 10.4937 16.5103 163° South  Level Estimated
Fri 11:12:00 PM 10.3714 16.5485 163° South  Level Estimated
Fri 11:13:00 PM 10.2491 16.5868 163° South  Level Estimated
Fri 11:14:00 PM 10.1267 16.6250 163° South  Level Estimated
Fri 11:15:00 PM 10.0044 16.6632 163° South  Level Estimated
Fri 11:16:00 PM 9.8821 16.7013 163° South  Level Estimated
Fri 11:17:00 PM 9.7597 16.7394 163° South  Level Estimated
Fri 11:18:00 PM 9.6374 16.7775 163° South  Level Estimated
Fri 11:19:00 PM 9.5150 16.8156 163° South  Level Estimated
Fri 11:20:00 PM 9.3927 16.8536 163° South  Level Estimated
Fri 11:21:00 PM 9.2703 16.8917 163° South  Level Estimated
Fri 11:22:00 PM 9.1480 16.9297 163° South  Level Estimated
Fri 11:23:00 PM 9.0256 16.9676 163° South  Level Estimated
Fri 11:24:00 PM 8.9032 17.0056 163° South  Level Estimated
Fri 11:25:00 PM 8.7809 17.0435 163° South  Level Estimated
Fri 11:26:00 PM 8.6585 17.0814 163° South  Level Estimated
Fri 11:27:00 PM 8.5361 17.1192 163° South  Level Estimated
Fri 11:28:00 PM 8.4137 17.1571 163° South  Level Estimated
Fri 11:29:00 PM 8.2914 17.1949 163° South  Level Estimated
Fri 11:30:00 PM 8.1690 17.2327 163° South  Level Estimated
Fri 11:31:00 PM 8.0466 17.2704 163° South  Level Estimated
Fri 11:32:00 PM 7.9242 17.3082 163° South  Level Estimated
Fri 11:33:00 PM 7.8018 17.3459 163° South  Level Estimated
Fri 11:34:00 PM 7.6794 17.3836 163° South  Level Estimated
Fri 11:35:00 PM 7.5570 17.4213 163° South  Level Estimated
Fri 11:36:00 PM 7.4346 17.4589 163° South  Level Estimated
Fri 11:37:00 PM 7.3122 17.4966 163° South  Level Estimated
Fri 11:38:00 PM 7.1897 17.5342 163° South  Level Estimated
Fri 11:39:00 PM 7.0673 17.5718 163° South  Level Estimated
Fri 11:40:00 PM 6.9449 17.6094 163° South  Level Estimated
Fri 11:41:00 PM 6.8225 17.6469 163° South  Level Estimated
Fri 11:42:00 PM 6.7000 17.6845 163° South  Level Estimated
Fri 11:43:00 PM 6.5776 17.7220 163° South  Level Estimated
Fri 11:44:00 PM 6.4552 17.7595 163° South  Level Estimated
Fri 11:45:00 PM 6.3327 17.7970 163° South  Level Estimated
Fri 11:46:00 PM 6.2103 17.8344 163° South  Level Estimated
Fri 11:47:00 PM 6.0879 17.8719 163° South  Level Estimated
Fri 11:48:00 PM 5.9654 17.9093 163° South  Level Estimated
Fri 11:49:00 PM 5.8430 17.9467 163° South  Level Estimated
Fri 11:50:00 PM 5.7205 17.9841 163° South  Level Estimated
Fri 11:51:00 PM 5.5981 18.0215 163° South  Level Estimated
Fri 11:52:00 PM 5.4756 18.0589 163° South  Level Estimated
Fri 11:53:00 PM 5.3532 18.0962 163° South  Level Estimated
Fri 11:54:00 PM 5.2307 18.1335 163° South  Level Estimated
Fri 11:55:00 PM 5.1082 18.1709 163° South  Level Estimated
Fri 11:56:00 PM 4.9858 18.2082 163° South  Level Estimated
Fri 11:57:00 PM 4.8633 18.2454 163° South  Level Estimated
Fri 11:58:00 PM 4.7408 18.2827 163° South  Level Estimated
Fri 11:59:00 PM 4.6184 18.3200 163° South  Level Estimated
Sat 12:00:00 AM 4.4959 18.3572 163° South  Level Estimated
Sat 12:01:00 AM 4.3734 18.3945 163° South  Level Estimated
Sat 12:02:00 AM 4.2510 18.4317 163° South  Level Estimated
Sat 12:03:00 AM 4.1285 18.4689 163° South  Level Estimated
Sat 12:04:00 AM 4.0060 18.5061 163° South  Level Estimated
Sat 12:05:00 AM 3.8835 18.5433 163° South  Level Estimated
Sat 12:06:00 AM 3.7610 18.5805 163° South  Level Estimated
Sat 12:07:00 AM 3.6386 18.6177 163° South  Level Estimated
Sat 12:08:00 AM 3.5161 18.6548 163° South  Level Estimated
Sat 12:09:00 AM 3.3936 18.6920 163° South  Level Estimated
Sat 12:10:00 AM 3.2711 18.7291 163° South  Level Estimated
Sat 12:11:00 AM 3.1486 18.7662 163° South  Level Estimated
Sat 12:12:00 AM 3.0261 18.8034 163° South  Level Estimated
Sat 12:13:00 AM 2.9036 18.8405 163° South  Level Estimated
Sat 12:14:00 AM 2.7812 18.8776 163° South  Level Estimated
Sat 12:15:00 AM 2.6587 18.9147 163° South  Level Estimated
Sat 12:16:00 AM 2.5362 18.9518 163° South  Level Estimated
Sat 12:17:00 AM 2.4137 18.9889 163° South  Level Estimated
Sat 12:18:00 AM 2.2912 19.0259 163° South  Level Estimated
Sat 12:19:00 AM 2.1687 19.0630 163° South  Level Estimated
Sat 12:20:00 AM 2.0462 19.1001 163° South  Level Estimated
Sat 12:21:00 AM 1.9237 19.1371 163° South  Level Estimated
Sat 12:22:00 AM 1.8012 19.1742 163° South  Level Estimated
Sat 12:23:00 AM 1.6787 19.2113 163° South  Level Estimated
Sat 12:24:00 AM 1.5562 19.2483 163° South  Level Estimated
Sat 12:25:00 AM 1.4337 19.2854 163° South  Level Estimated
Sat 12:26:00 AM 1.3112 19.3224 163° South  Level Estimated
Sat 12:27:00 AM 1.1887 19.3594 163° South  Level Estimated
Sat 12:28:00 AM 1.0662 19.3965 163° South  Level Estimated
Sat 12:29:00 AM 0.9437 19.4335 163° South  Level Estimated
Sat 12:30:00 AM 0.8212 19.4705 163° South  Level Estimated
Sat 12:31:00 AM 0.6987 19.5075 163° South  Level Estimated
Sat 12:32:00 AM 0.5762 19.5445 163° South  Level Estimated
Sat 12:33:00 AM 0.4536 19.5816 163° South  Level Estimated
Sat 12:34:00 AM 0.3311 19.6186 163° South  Level Estimated
Sat 12:35:00 AM 0.2086 19.6556 163° South  Level Estimated
Sat 12:36:00 AM 0.0861 19.6926 163° South  Level Estimated
Sat 12:37:00 AM -0.0364 19.7296 163° South  Level Estimated
Sat 12:38:00 AM -0.1589 19.7667 163° South  Level Estimated
Sat 12:39:00 AM -0.2814 19.8037 163° South  Level Estimated
Sat 12:40:00 AM -0.4039 19.8407 163° South  Level Estimated
Sat 12:41:00 AM -0.5264 19.8777 163° South  Level Estimated
Sat 12:42:00 AM -0.6489 19.9147 163° South  Level Estimated
Sat 12:43:00 AM -0.7715 19.9518 163° South  Level Estimated
Sat 12:44:00 AM -0.8940 19.9888 163° South  Level Estimated
Sat 12:45:00 AM -1.0165 20.0258 163° South  Level Estimated
Sat 12:46:00 AM -1.1390 20.0628 163° South  Level Estimated
Sat 12:47:00 AM -1.2615 20.0999 163° South  Level Estimated
Sat 12:48:00 AM -1.3840 20.1369 163° South  Level Estimated
Sat 12:49:00 AM -1.5065 20.1740 163° South  Level Estimated
Sat 12:50:00 AM -1.6290 20.2110 163° South  Level Estimated
Sat 12:51:00 AM -1.7515 20.2480 163° South  Level Estimated
Sat 12:52:00 AM -1.8740 20.2851 163° South  Level Estimated
Sat 12:53:00 AM -1.9965 20.3221 163° South  Level Estimated
Sat 12:54:00 AM -2.1190 20.3592 163° South  Level Estimated
Sat 12:55:00 AM -2.2415 20.3963 163° South  Level Estimated
Sat 12:56:00 AM -2.3640 20.4334 163° South  Level Estimated
Sat 12:57:00 AM -2.4865 20.4704 163° South  Level Estimated
Sat 12:58:00 AM -2.6090 20.5075 163° South  Level Estimated
Sat 12:59:00 AM -2.7315 20.5446 163° South  Level Estimated
Sat 01:00:00 AM -2.8539 20.5817 163° South  Level Estimated
Sat 01:01:00 AM -2.9764 20.6188 163° South  Level Estimated
Sat 01:02:00 AM -3.0989 20.6560 163° South  Level Estimated
Sat 01:03:00 AM -3.2214 20.6931 163° South  Level Estimated
Sat 01:04:00 AM -3.3439 20.7302 163° South  Level Estimated
Sat 01:05:00 AM -3.4664 20.7674 163° South  Level Estimated
Sat 01:06:00 AM -3.5889 20.8045 163° South  Level Estimated
Sat 01:07:00 AM -3.7113 20.8417 163° South  Level Estimated
Sat 01:08:00 AM -3.8338 20.8789 163° South  Level Estimated
Sat 01:09:00 AM -3.9563 20.9161 163° South  Level Estimated
Sat 01:10:00 AM -4.0788 20.9533 163° South  Level Estimated
Sat 01:11:00 AM -4.2013 20.9905 163° South  Level Estimated
Sat 01:12:00 AM -4.3238 21.0277 163° South  Level Estimated
Sat 01:13:00 AM -4.4462 21.0649 163° South  Level Estimated
Sat 01:14:00 AM -4.5687 21.1022 163° South  Level Estimated
Sat 01:15:00 AM -4.6912 21.1395 163° South  Level Estimated
Sat 01:16:00 AM -4.8136 21.1767 163° South  Level Estimated
Sat 01:17:00 AM -4.9361 21.2140 163° South  Level Estimated
Sat 01:18:00 AM -5.0586 21.2513 163° South  Level Estimated
Sat 01:19:00 AM -5.1810 21.2886 163° South  Level Estimated
Sat 01:20:00 AM -5.3035 21.3260 163° South  Level Estimated
Sat 01:21:00 AM -5.4259 21.3633 163° South  Level Estimated
Sat 01:22:00 AM -5.5484 21.4007 163° South  Level Estimated
Sat 01:23:00 AM -5.6708 21.4380 163° South  Level Estimated
Sat 01:24:00 AM -5.7933 21.4754 163° South  Level Estimated
Sat 01:25:00 AM -5.9157 21.5128 163° South  Level Estimated
Sat 01:26:00 AM -6.0382 21.5502 163° South  Level Estimated
Sat 01:27:00 AM -6.1606 21.5877 163° South  Level Estimated
Sat 01:28:00 AM -6.2831 21.6251 163° South  Level Estimated
Sat 01:29:00 AM -6.4055 21.6626 163° South  Level Estimated
Sat 01:30:00 AM -6.5279 21.7001 163° South  Level Estimated
Sat 01:31:00 AM -6.6504 21.7376 163° South  Level Estimated
Sat 01:32:00 AM -6.7728 21.7751 163° South  Level Estimated
Sat 01:33:00 AM -6.8952 21.8127 163° South  Level Estimated
Sat 01:34:00 AM -7.0176 21.8503 163° South  Level Estimated
Sat 01:35:00 AM -7.1401 21.8878 163° South  Level Estimated
Sat 01:36:00 AM -7.2625 21.9255 163° South  Level Estimated
Sat 01:37:00 AM -7.3849 21.9631 163° South  Level Estimated
Sat 01:38:00 AM -7.5073 22.0007 163° South  Level Estimated
Sat 01:39:00 AM -7.6297 22.0384 163° South  Level Estimated
Sat 01:40:00 AM -7.7521 22.0761 163° South  Level Estimated
Sat 01:41:00 AM -7.8745 22.1138 163° South  Level Estimated
Sat 01:42:00 AM -7.9969 22.1516 163° South  Level Estimated
Sat 01:43:00 AM -8.1193 22.1893 163° South  Level Estimated
Sat 01:44:00 AM -8.2417 22.2271 163° South  Level Estimated
Sat 01:45:00 AM -8.3641 22.2649 163° South  Level Estimated
Sat 01:46:00 AM -8.4865 22.3027 163° South  Level Estimated
Sat 01:47:00 AM -8.6088 22.3406 163° South  Level Estimated
Sat 01:48:00 AM -8.7312 22.3785 163° South  Level Estimated
Sat 01:49:00 AM -8.8536 22.4163 163° South  Level Estimated
Sat 01:50:00 AM -8.9760 22.4543 163° South  Level Estimated
Sat 01:51:00 AM -9.0983 22.4922 163° South  Level Estimated
Sat 01:52:00 AM -9.2207 22.5302 163° South  Level Estimated
Sat 01:53:00 AM -9.3430 22.5682 163° South  Level Estimated
Sat 01:54:00 AM -9.4654 22.6062 163° South  Level Estimated
Sat 01:55:00 AM -9.5877 22.6443 163° South  Level Estimated
Sat 01:56:00 AM -9.7101 22.6824 163° South  Level Estimated
Sat 01:57:00 AM -9.8324 22.7205 163° South  Level Estimated
Sat 01:58:00 AM -9.9548 22.7586 163° South  Level Estimated
Sat 01:59:00 AM -10.0771 22.7968 163° South  Level Estimated
Sat 02:00:00 AM -10.1994 22.8350 163° South  Level Estimated
Sat 02:01:00 AM -10.3217 22.8732 163° South  Level Estimated
Sat 02:02:00 AM -10.4441 22.9115 163° South  Level Estimated
Sat 02:03:00 AM -10.5664 22.9498 163° South  Level Estimated
Sat 02:04:00 AM -10.6887 22.9881 163° South  Level Estimated
Sat 02:05:00 AM -10.8110 23.0265 163° South  Level Estimated
Sat 02:06:00 AM -10.9333 23.0648 163° South  Level Estimated
Sat 02:07:00 AM -11.0556 23.1033 163° South  Level Estimated
Sat 02:08:00 AM -11.1779 23.1417 163° South  Level Estimated
Sat 02:09:00 AM -11.3001 23.1802 163° South  Level Estimated
Sat 02:10:00 AM -11.4224 23.2187 163° South  Level Estimated
Sat 02:11:00 AM -11.5447 23.2572 163° South  Level Estimated
Sat 02:12:00 AM -11.6670 23.2958 163° South  Level Estimated
Sat 02:13:00 AM -11.7892 23.3344 163° South  Level Estimated
Sat 02:14:00 AM -11.9115 23.3731 163° South  Level Estimated
Sat 02:15:00 AM -12.0337 23.4118 163° South  Level Estimated
Sat 02:16:00 AM -12.1560 23.4505 163° South  Level Estimated
Sat 02:17:00 AM -12.2782 23.4892 163° South  Level Estimated
Sat 02:18:00 AM -12.4005 23.5280 163° South  Level Estimated
Sat 02:19:00 AM -12.5227 23.5668 163° South  Level Estimated
Sat 02:20:00 AM -12.6449 23.6057 163° South  Level Estimated
Sat 02:21:00 AM -12.7672 23.6446 163° South  Level Estimated
Sat 02:22:00 AM -12.8894 23.6835 163° South  Level Estimated
Sat 02:23:00 AM -13.0116 23.7225 163° South  Level Estimated
Sat 02:24:00 AM -13.1338 23.7615 163° South  Level Estimated
Sat 02:25:00 AM -13.2560 23.8006 163° South  Level Estimated
Sat 02:26:00 AM -13.3782 23.8396 163° South  Level Estimated
Sat 02:27:00 AM -13.5004 23.8788 163° South  Level Estimated
Sat 02:28:00 AM -13.6226 23.9179 163° South  Level Estimated
Sat 02:29:00 AM -13.7447 23.9572 163° South  Level Estimated
Sat 02:30:00 AM -13.8669 23.9964 163° South  Level Estimated
Sat 02:31:00 AM -13.9890 24.0357 163° South  Level Estimated
Sat 02:32:00 AM -14.1112 24.0750 163° South  Level Estimated
Sat 02:33:00 AM -14.2334 24.1144 163° South  Level Estimated
Sat 02:34:00 AM -14.3555 24.1538 163° South  Level Estimated
Sat 02:35:00 AM -14.4776 24.1933 163° South  Level Estimated
Sat 02:36:00 AM -14.5998 24.2328 163° South  Level Estimated
Sat 02:37:00 AM -14.7219 24.2724 163° South  Level Estimated
Sat 02:38:00 AM -14.8440 24.3119 163° South  Level Estimated
Sat 02:39:00 AM -14.9661 24.3516 163° South  Level Estimated
Sat 02:40:00 AM -15.0882 24.3913 163° South  Level Estimated
Sat 02:41:00 AM -15.2103 24.4310 163° South  Level Estimated
Sat 02:42:00 AM -15.3324 24.4708 163° South  Level Estimated
Sat 02:43:00 AM -15.4545 24.5106 163° South  Level Estimated
Sat 02:44:00 AM -15.5766 24.5505 163° South  Level Estimated
Sat 02:45:00 AM -15.6986 24.5904 163° South  Level Estimated
Sat 02:46:00 AM -15.8207 24.6303 163° South  Level Estimated
Sat 02:47:00 AM -15.9427 24.6703 163° South  Level Estimated
Sat 02:48:00 AM -16.0648 24.7104 162° South  Level Estimated
Sat 02:49:00 AM -16.1868 24.7505 162° South  Level Estimated
Sat 02:50:00 AM -16.3089 24.7907 162° South  Level Estimated
Sat 02:51:00 AM -16.4309 24.8309 162° South  Level Estimated
Sat 02:52:00 AM -16.5529 24.8711 162° South  Level Estimated
Sat 02:53:00 AM -16.6749 24.9115 162° South  Level Estimated
Sat 02:54:00 AM -16.7969 24.9518 162° South  Level Estimated
Sat 02:55:00 AM -16.9189 24.9922 162° South  Level Estimated
Sat 02:56:00 AM -17.0409 25.0327 162° South  Level Estimated
Sat 02:57:00 AM -17.1629 25.0732 162° South  Level Estimated
Sat 02:58:00 AM -17.2848 25.1138 162° South  Level Estimated
Sat 02:59:00 AM -17.4068 25.1544 162° South  Level Estimated
Sat 03:00:00 AM -17.5287 25.1951 162° South  Level Estimated
Sat 03:01:00 AM -17.6507 25.2358 162° South  Level Estimated
Sat 03:02:00 AM -17.7726 25.2766 162° South  Level Estimated
Sat 03:03:00 AM -17.8945 25.3175 162° South  Level Estimated
Sat 03:04:00 AM -18.0165 25.3584 162° South  Level Estimated
Sat 03:05:00 AM -18.1384 25.3993 162° South  Level Estimated
Sat 03:06:00 AM -18.2603 25.4404 162° South  Level Estimated
Sat 03:07:00 AM -18.3822 25.4814 162° South  Level Estimated
Sat 03:08:00 AM -18.5040 25.5226 162° South  Level Estimated
Sat 03:09:00 AM -18.6259 25.5637 162° South  Level Estimated
Sat 03:10:00 AM -18.7478 25.6050 162° South  Level Estimated
Sat 03:11:00 AM -18.8696 25.6463 162° South  Level Estimated
Sat 03:12:00 AM -18.9915 25.6877 162° South  Level Estimated
Sat 03:12:47 AM -22.9250 26.0820 162° South 523 602 41,000  Level FlightAware ADS-B
Sat 03:13:00 AM -19.1133 25.7291 162° South  Level Estimated
Sat 03:13:47 AM -23.0590 26.1440 157° South 525 604 41,000  Level FlightAware ADS-B
Sat 03:14:27 AM -23.1290 26.1780 156° South 525 604 41,000  Level FlightAware ADS-B
Sat 03:15:12 AM -23.2450 26.2300 158° South 526 605 41,000  Level FlightAware ADS-B
Sat 03:15:47 AM -23.3320 26.2710 157° South 525 604 41,000  Level FlightAware ADS-B
Sat 03:16:37 AM -23.4390 26.3200 157° South 525 604 41,000  Level FlightAware ADS-B
Sat 03:17:22 AM -23.5400 26.3680 156° South 525 604 41,000  Level FlightAware ADS-B
Sat 03:18:17 AM -23.6720 26.4290 157° South 527 606 41,000  Level FlightAware ADS-B
Sat 03:18:52 AM -23.7350 26.4580 157° South 527 606 41,000  Level FlightAware ADS-B
Sat 03:19:17 AM -23.8010 26.4890 157° South 525 604 41,000  Level FlightAware ADS-B
Sat 03:20:07 AM -23.9120 26.5420 156° South 528 608 41,000 -212 Level FlightAware ADS-B
Sat 03:20:42 AM -23.9930 26.5830 155° Southeast 525 604 40,700 -706 Descending FlightAware ADS-B
Sat 03:21:32 AM -24.0940 26.6320 156° South 529 609 40,000 -1,333 Descending FlightAware ADS-B
Sat 03:22:12 AM -24.1950 26.6820 156° South 532 612 38,700 -1,958 Descending FlightAware ADS-B
Sat 03:23:07 AM -24.3140 26.7410 156° South 526 605 36,900 -2,220 Descending FlightAware ADS-B
Sat 03:23:52 AM -24.4120 26.7890 156° South 530 610 35,000 -2,682 Descending FlightAware ADS-B
Sat 03:24:32 AM -24.5100 26.8380 156° South 531 611 33,100 -2,463 Descending FlightAware ADS-B
Sat 03:25:27 AM -24.6310 26.8980 156° South 527 606 31,100 -1,980 Descending FlightAware ADS-B
Sat 03:26:12 AM -24.7260 26.9450 156° South 517 595 29,800 -1,765 Descending FlightAware ADS-B
Sat 03:26:52 AM -24.8170 26.9900 156° South 505 581 28,600 -1,760 Descending FlightAware ADS-B
Sat 03:27:27 AM -24.8900 27.0270 155° Southeast 494 568 27,600 -1,624 Descending FlightAware ADS-B
Sat 03:28:17 AM -24.9900 27.0770 156° South 484 557 26,300 -1,600 Descending FlightAware ADS-B
Sat 03:29:12 AM -25.1020 27.1330 156° South 480 552 24,800 -1,667 Descending FlightAware ADS-B
Sat 03:29:47 AM -25.1740 27.1690 156° South 474 545 23,800 -1,835 Descending FlightAware ADS-B
Sat 03:30:37 AM -25.2730 27.2190 155° Southeast 471 542 22,200 -1,733 Descending FlightAware ADS-B
Sat 03:31:17 AM -25.3530 27.2590 156° South 460 529 21,200 -1,482 Descending FlightAware ADS-B
Sat 03:32:02 AM -25.4350 27.3000 156° South 448 516 20,100 -1,412 Descending FlightAware ADS-B
Sat 03:32:42 AM -25.5120 27.3390 155° Southeast 431 496 19,200 -975 Descending FlightAware ADS-B
Sat 03:33:22 AM -25.5830 27.3750 155° Southeast 401 461 18,800 -600 Descending FlightAware ADS-B
Sat 03:34:02 AM -25.6510 27.4100 155° Southeast 376 433 18,400 -900 Descending FlightAware ADS-B
Sat 03:35:02 AM -25.7400 27.4800 145° Southeast 366 421 17,300 -1,140 Descending FlightAware ADS-B
Sat 03:35:42 AM -25.7730 27.5410 121° Southeast 360 414 16,500 -1,412 Descending FlightAware ADS-B
Sat 03:36:27 AM -25.8140 27.6130 122° Southeast 350 403 15,300 -1,412 Descending FlightAware ADS-B
Sat 03:37:07 AM -25.8490 27.6760 122° Southeast 343 395 14,500 -988 Descending FlightAware ADS-B
Sat 03:37:52 AM -25.8850 27.7400 122° Southeast 333 383 13,900 -918 Descending FlightAware ADS-B
Sat 03:38:32 AM -25.9180 27.7990 122° Southeast 320 368 13,200 -1,200 Descending FlightAware ADS-B
Sat 03:39:17 AM -25.9530 27.8630 121° Southeast 316 364 12,200 -1,280 Descending FlightAware ADS-B
Sat 03:39:47 AM -25.9720 27.9030 118° Southeast 321 369 11,600 -1,114 Descending FlightAware ADS-B
Sat 03:40:27 AM -25.9690 27.9520 86° East 321 369 10,900 -1,425 Descending FlightAware ADS-B
Sat 03:41:07 AM -25.9590 28.0210 81° East 310 357 9,700 -1,629 Descending FlightAware ADS-B
Sat 03:41:37 AM -25.9530 28.0650 81° East 304 350 9,000 -840 Descending FlightAware ADS-B
Sat 03:41:57 AM -25.9480 28.0970 80° East 290 334 9,000  Level FlightAware ADS-B
Sat 03:42:12 AM -25.9450 28.1180 81° East 277 319 9,000  Level FlightAware ADS-B
Sat 03:42:37 AM -25.9400 28.1540 81° East 260 299 9,000  Level FlightAware ADS-B
Sat 03:43:02 AM -25.9350 28.1860 80° East 253 291 9,000 -218 Level FlightAware ADS-B
Sat 03:43:32 AM -25.9300 28.2220 81° East 232 267 8,800 -600 Descending FlightAware ADS-B
Sat 03:44:02 AM -25.9330 28.2560 96° East 219 252 8,400 -982 Descending FlightAware ADS-B
Sat 03:44:27 AM -25.9380 28.2830 102° East 217 250 7,900 -1,200 Descending FlightAware ADS-B
Sat 03:44:37 AM -25.9440 28.2920 127° Southeast 207 238 7,700 -600 Descending FlightAware ADS-B
Sat 03:44:57 AM -25.9610 28.3020 152° Southeast 186 214 7,600 -200 Descending FlightAware ADS-B
Sat 03:45:07 AM -25.9690 28.3050 161° South 182 209 7,600  Level FlightAware ADS-B
Sat 03:45:27 AM -25.9850 28.3040 183° South 175 201 7,600 133 Level FlightAware ADS-B
Sat 03:45:52 AM -26.0050 28.2980 195° South 174 200 7,700 -560 Climbing FlightAware ADS-B
Sat 03:46:42 AM -26.0430 28.2860 196° South 161 185 6,900 -900 Descending FlightAware ADS-B
Sat 03:46:52 AM -26.0500 28.2840 194° South 157 181 6,800 -667 Descending FlightAware ADS-B
Sat 03:47:27 AM -26.0740 28.2760 197° South 155 178 6,400 -700 Descending FlightAware ADS-B
Sat 03:47:52 AM -26.0910 28.2710 195° South 151 174 6,100 -764 Descending FlightAware ADS-B
Sat 03:48:22 AM -26.1100 28.2650 196° South 141 162 5,700 -706 Descending FlightAware ADS-B
Sat 03:49:17 AM -26.1460 28.2540 195° South 119 137 5,100 -655 Descending FlightAware ADS-B

Login

Don't have an account? Register now (free) for customized features, flight alerts, and more!